sensor_id;sensor_type;location;lat;lon;timestamp;temperature;humidity
39067;DHT22;24821;51.988;6.020;2022-10-18T00:01:42;16.90;99.90
39067;DHT22;24821;51.988;6.020;2022-10-18T00:04:08;16.90;99.90
39067;DHT22;24821;51.988;6.020;2022-10-18T00:06:33;16.90;99.90
39067;DHT22;24821;51.988;6.020;2022-10-18T00:08:59;17.00;99.90
39067;DHT22;24821;51.988;6.020;2022-10-18T00:11:25;17.00;99.90
39067;DHT22;24821;51.988;6.020;2022-10-18T00:13:50;17.00;99.90
39067;DHT22;24821;51.988;6.020;2022-10-18T00:16:17;17.00;99.90
39067;DHT22;24821;51.988;6.020;2022-10-18T00:18:43;17.00;99.90
39067;DHT22;24821;51.988;6.020;2022-10-18T00:21:13;17.00;99.90
39067;DHT22;24821;51.988;6.020;2022-10-18T00:23:39;17.10;99.90
39067;DHT22;24821;51.988;6.020;2022-10-18T00:26:10;17.00;99.90
39067;DHT22;24821;51.988;6.020;2022-10-18T00:28:36;17.00;99.90
39067;DHT22;24821;51.988;6.020;2022-10-18T00:31:13;17.00;99.90
39067;DHT22;24821;51.988;6.020;2022-10-18T00:33:41;17.00;99.90
39067;DHT22;24821;51.988;6.020;2022-10-18T00:36:08;16.90;99.90
39067;DHT22;24821;51.988;6.020;2022-10-18T00:38:33;16.90;99.90
39067;DHT22;24821;51.988;6.020;2022-10-18T00:40:59;16.90;99.90
39067;DHT22;24821;51.988;6.020;2022-10-18T00:43:24;16.90;99.90
39067;DHT22;24821;51.988;6.020;2022-10-18T00:45:50;17.00;99.90
39067;DHT22;24821;51.988;6.020;2022-10-18T00:48:17;17.00;99.90
39067;DHT22;24821;51.988;6.020;2022-10-18T00:50:45;17.00;99.90
39067;DHT22;24821;51.988;6.020;2022-10-18T00:53:14;17.00;99.90
39067;DHT22;24821;51.988;6.020;2022-10-18T00:55:40;17.00;99.90
39067;DHT22;24821;51.988;6.020;2022-10-18T00:58:06;17.00;99.90
39067;DHT22;24821;51.988;6.020;2022-10-18T01:00:33;17.00;99.90
39067;DHT22;24821;51.988;6.020;2022-10-18T01:03:03;17.00;99.90
39067;DHT22;24821;51.988;6.020;2022-10-18T01:05:28;17.00;99.90
39067;DHT22;24821;51.988;6.020;2022-10-18T01:08:05;17.00;99.90
39067;DHT22;24821;51.988;6.020;2022-10-18T01:11:03;17.00;99.90
39067;DHT22;24821;51.988;6.020;2022-10-18T01:16:25;17.00;99.90
39067;DHT22;24821;51.988;6.020;2022-10-18T01:18:58;17.00;99.90
39067;DHT22;24821;51.988;6.020;2022-10-18T01:21:39;17.00;99.90
39067;DHT22;24821;51.988;6.020;2022-10-18T01:32:53;17.00;99.90
39067;DHT22;24821;51.988;6.020;2022-10-18T01:35:25;17.00;99.90
39067;DHT22;24821;51.988;6.020;2022-10-18T01:37:53;17.00;99.90
39067;DHT22;24821;51.988;6.020;2022-10-18T01:40:20;17.00;99.90
39067;DHT22;24821;51.988;6.020;2022-10-18T01:42:48;17.00;99.90
39067;DHT22;24821;51.988;6.020;2022-10-18T01:45:14;16.90;99.90
39067;DHT22;24821;51.988;6.020;2022-10-18T01:47:43;16.90;99.90
39067;DHT22;24821;51.988;6.020;2022-10-18T01:50:10;16.90;99.90
39067;DHT22;24821;51.988;6.020;2022-10-18T01:52:45;16.90;99.90
39067;DHT22;24821;51.988;6.020;2022-10-18T01:55:11;16.90;99.90
39067;DHT22;24821;51.988;6.020;2022-10-18T01:57:41;16.90;99.90
39067;DHT22;24821;51.988;6.020;2022-10-18T02:00:23;17.00;99.90
39067;DHT22;24821;51.988;6.020;2022-10-18T02:03:01;17.00;99.90
39067;DHT22;24821;51.988;6.020;2022-10-18T02:05:38;17.00;99.90
39067;DHT22;24821;51.988;6.020;2022-10-18T02:10:46;17.00;99.90
39067;DHT22;24821;51.988;6.020;2022-10-18T02:13:15;17.00;99.90
39067;DHT22;24821;51.988;6.020;2022-10-18T02:15:44;16.90;99.90
39067;DHT22;24821;51.988;6.020;2022-10-18T02:18:15;16.90;99.90
39067;DHT22;24821;51.988;6.020;2022-10-18T02:20:41;16.90;99.90
39067;DHT22;24821;51.988;6.020;2022-10-18T02:23:09;16.90;99.90
39067;DHT22;24821;51.988;6.020;2022-10-18T02:25:36;16.90;99.90
39067;DHT22;24821;51.988;6.020;2022-10-18T02:28:03;16.90;99.90
39067;DHT22;24821;51.988;6.020;2022-10-18T02:30:35;16.90;99.90
39067;DHT22;24821;51.988;6.020;2022-10-18T02:33:14;16.90;99.90
39067;DHT22;24821;51.988;6.020;2022-10-18T02:35:46;16.90;99.90
39067;DHT22;24821;51.988;6.020;2022-10-18T02:38:15;16.80;99.90
39067;DHT22;24821;51.988;6.020;2022-10-18T02:40:41;16.80;99.90
39067;DHT22;24821;51.988;6.020;2022-10-18T02:43:07;16.80;99.90
39067;DHT22;24821;51.988;6.020;2022-10-18T02:45:33;16.80;99.90
39067;DHT22;24821;51.988;6.020;2022-10-18T02:47:59;16.80;99.90
39067;DHT22;24821;51.988;6.020;2022-10-18T02:50:24;16.80;99.90
39067;DHT22;24821;51.988;6.020;2022-10-18T02:52:50;16.70;99.90
39067;DHT22;24821;51.988;6.020;2022-10-18T02:55:15;16.70;99.90
39067;DHT22;24821;51.988;6.020;2022-10-18T02:57:41;16.70;99.90
39067;DHT22;24821;51.988;6.020;2022-10-18T03:00:07;16.70;99.90
39067;DHT22;24821;51.988;6.020;2022-10-18T03:02:33;16.70;99.90
39067;DHT22;24821;51.988;6.020;2022-10-18T03:04:59;16.70;99.90
39067;DHT22;24821;51.988;6.020;2022-10-18T03:07:24;16.60;99.90
39067;DHT22;24821;51.988;6.020;2022-10-18T03:09:50;16.60;99.90
39067;DHT22;24821;51.988;6.020;2022-10-18T03:12:16;16.60;99.90
39067;DHT22;24821;51.988;6.020;2022-10-18T03:14:41;16.60;99.90
39067;DHT22;24821;51.988;6.020;2022-10-18T03:17:07;16.60;99.90
39067;DHT22;24821;51.988;6.020;2022-10-18T03:19:32;16.60;99.90
39067;DHT22;24821;51.988;6.020;2022-10-18T03:21:58;16.50;99.90
39067;DHT22;24821;51.988;6.020;2022-10-18T03:24:24;16.50;99.90
39067;DHT22;24821;51.988;6.020;2022-10-18T03:26:49;16.60;99.90
39067;DHT22;24821;51.988;6.020;2022-10-18T03:29:15;16.50;99.90
39067;DHT22;24821;51.988;6.020;2022-10-18T03:31:40;16.50;99.90
39067;DHT22;24821;51.988;6.020;2022-10-18T03:34:06;16.50;99.90
39067;DHT22;24821;51.988;6.020;2022-10-18T03:36:31;16.50;99.90
39067;DHT22;24821;51.988;6.020;2022-10-18T03:38:58;16.50;99.90
39067;DHT22;24821;51.988;6.020;2022-10-18T03:41:24;16.40;99.90
39067;DHT22;24821;51.988;6.020;2022-10-18T03:43:49;16.50;99.90
39067;DHT22;24821;51.988;6.020;2022-10-18T03:46:15;16.50;99.90
39067;DHT22;24821;51.988;6.020;2022-10-18T03:48:40;16.40;99.90
39067;DHT22;24821;51.988;6.020;2022-10-18T03:51:06;16.50;99.90
39067;DHT22;24821;51.988;6.020;2022-10-18T03:53:32;16.40;99.90
39067;DHT22;24821;51.988;6.020;2022-10-18T03:55:57;16.40;99.90
39067;DHT22;24821;51.988;6.020;2022-10-18T03:58:23;16.40;99.90
39067;DHT22;24821;51.988;6.020;2022-10-18T04:00:53;16.30;99.90
39067;DHT22;24821;51.988;6.020;2022-10-18T04:03:20;16.30;99.90
39067;DHT22;24821;51.988;6.020;2022-10-18T04:05:46;16.30;99.90
39067;DHT22;24821;51.988;6.020;2022-10-18T04:08:13;16.30;99.90
39067;DHT22;24821;51.988;6.020;2022-10-18T04:10:39;16.30;99.90
39067;DHT22;24821;51.988;6.020;2022-10-18T04:13:05;16.30;99.90
39067;DHT22;24821;51.988;6.020;2022-10-18T04:15:31;16.30;99.90
39067;DHT22;24821;51.988;6.020;2022-10-18T04:17:57;16.20;99.90
39067;DHT22;24821;51.988;6.020;2022-10-18T04:20:23;16.20;99.90
39067;DHT22;24821;51.988;6.020;2022-10-18T04:22:49;16.20;99.90
39067;DHT22;24821;51.988;6.020;2022-10-18T04:25:15;16.20;99.90
39067;DHT22;24821;51.988;6.020;2022-10-18T04:27:41;16.20;99.90
39067;DHT22;24821;51.988;6.020;2022-10-18T04:30:06;16.20;99.90
39067;DHT22;24821;51.988;6.020;2022-10-18T04:32:32;16.20;99.90
39067;DHT22;24821;51.988;6.020;2022-10-18T04:34:59;16.20;99.90
39067;DHT22;24821;51.988;6.020;2022-10-18T04:37:25;16.20;99.90
39067;DHT22;24821;51.988;6.020;2022-10-18T04:39:50;16.20;99.90
39067;DHT22;24821;51.988;6.020;2022-10-18T04:42:16;16.20;99.90
39067;DHT22;24821;51.988;6.020;2022-10-18T04:44:41;16.20;99.90
39067;DHT22;24821;51.988;6.020;2022-10-18T04:47:07;16.10;99.90
39067;DHT22;24821;51.988;6.020;2022-10-18T04:49:32;16.10;99.90
39067;DHT22;24821;51.988;6.020;2022-10-18T04:51:58;16.10;99.90
39067;DHT22;24821;51.988;6.020;2022-10-18T04:54:23;16.00;99.90
39067;DHT22;24821;51.988;6.020;2022-10-18T04:56:49;16.00;99.90
39067;DHT22;24821;51.988;6.020;2022-10-18T04:59:15;16.00;99.90
39067;DHT22;24821;51.988;6.020;2022-10-18T05:01:40;16.00;99.90
39067;DHT22;24821;51.988;6.020;2022-10-18T05:04:06;15.90;99.90
39067;DHT22;24821;51.988;6.020;2022-10-18T05:06:31;15.90;99.90
39067;DHT22;24821;51.988;6.020;2022-10-18T05:08:57;15.90;99.90
39067;DHT22;24821;51.988;6.020;2022-10-18T05:11:22;15.80;99.90
39067;DHT22;24821;51.988;6.020;2022-10-18T05:13:48;15.80;99.90
39067;DHT22;24821;51.988;6.020;2022-10-18T05:16:13;15.70;99.90
39067;DHT22;24821;51.988;6.020;2022-10-18T05:18:40;15.70;99.90
39067;DHT22;24821;51.988;6.020;2022-10-18T05:21:07;15.70;99.90
39067;DHT22;24821;51.988;6.020;2022-10-18T05:23:33;15.70;99.90
39067;DHT22;24821;51.988;6.020;2022-10-18T05:26:03;15.70;99.90
39067;DHT22;24821;51.988;6.020;2022-10-18T05:28:29;15.70;99.90
39067;DHT22;24821;51.988;6.020;2022-10-18T05:30:58;15.70;99.90
39067;DHT22;24821;51.988;6.020;2022-10-18T05:33:24;15.80;99.90
39067;DHT22;24821;51.988;6.020;2022-10-18T05:35:50;15.80;99.90
39067;DHT22;24821;51.988;6.020;2022-10-18T05:38:15;15.80;99.90
39067;DHT22;24821;51.988;6.020;2022-10-18T05:40:41;15.80;99.90
39067;DHT22;24821;51.988;6.020;2022-10-18T05:43:07;15.70;99.90
39067;DHT22;24821;51.988;6.020;2022-10-18T05:45:32;15.70;99.90
39067;DHT22;24821;51.988;6.020;2022-10-18T05:47:58;15.70;99.90
39067;DHT22;24821;51.988;6.020;2022-10-18T05:50:23;15.70;99.90
39067;DHT22;24821;51.988;6.020;2022-10-18T05:52:49;15.70;99.90
39067;DHT22;24821;51.988;6.020;2022-10-18T05:55:14;15.70;99.90
39067;DHT22;24821;51.988;6.020;2022-10-18T05:57:40;15.70;99.90
39067;DHT22;24821;51.988;6.020;2022-10-18T06:00:06;15.80;99.90
39067;DHT22;24821;51.988;6.020;2022-10-18T06:02:31;15.80;99.90
39067;DHT22;24821;51.988;6.020;2022-10-18T06:04:57;15.80;99.90
39067;DHT22;24821;51.988;6.020;2022-10-18T06:07:22;15.80;99.90
39067;DHT22;24821;51.988;6.020;2022-10-18T06:09:48;15.80;99.90
39067;DHT22;24821;51.988;6.020;2022-10-18T06:12:13;15.80;99.90
39067;DHT22;24821;51.988;6.020;2022-10-18T06:14:39;15.80;99.90
39067;DHT22;24821;51.988;6.020;2022-10-18T06:17:04;15.80;99.90
39067;DHT22;24821;51.988;6.020;2022-10-18T06:19:30;15.80;99.90
39067;DHT22;24821;51.988;6.020;2022-10-18T06:21:56;15.80;99.90
39067;DHT22;24821;51.988;6.020;2022-10-18T06:24:21;15.80;99.90
39067;DHT22;24821;51.988;6.020;2022-10-18T06:26:47;15.80;99.90
39067;DHT22;24821;51.988;6.020;2022-10-18T06:29:13;15.70;99.90
39067;DHT22;24821;51.988;6.020;2022-10-18T06:31:39;15.70;99.90
39067;DHT22;24821;51.988;6.020;2022-10-18T06:34:04;15.70;99.90
39067;DHT22;24821;51.988;6.020;2022-10-18T06:36:30;15.70;99.90
39067;DHT22;24821;51.988;6.020;2022-10-18T06:38:56;15.70;99.90
39067;DHT22;24821;51.988;6.020;2022-10-18T06:41:22;15.70;99.90
39067;DHT22;24821;51.988;6.020;2022-10-18T06:43:52;15.70;99.90
39067;DHT22;24821;51.988;6.020;2022-10-18T06:46:21;15.70;99.90
39067;DHT22;24821;51.988;6.020;2022-10-18T06:48:46;15.60;99.90
39067;DHT22;24821;51.988;6.020;2022-10-18T06:51:12;15.60;99.90
39067;DHT22;24821;51.988;6.020;2022-10-18T06:53:39;15.50;99.90
39067;DHT22;24821;51.988;6.020;2022-10-18T06:56:09;15.50;99.90
39067;DHT22;24821;51.988;6.020;2022-10-18T06:58:35;15.40;99.90
39067;DHT22;24821;51.988;6.020;2022-10-18T07:01:08;15.50;99.90
39067;DHT22;24821;51.988;6.020;2022-10-18T07:03:35;15.40;99.90
39067;DHT22;24821;51.988;6.020;2022-10-18T07:06:02;15.30;99.90
39067;DHT22;24821;51.988;6.020;2022-10-18T07:08:28;15.30;99.90
39067;DHT22;24821;51.988;6.020;2022-10-18T07:10:54;15.30;99.90
39067;DHT22;24821;51.988;6.020;2022-10-18T07:13:20;15.30;99.90
39067;DHT22;24821;51.988;6.020;2022-10-18T07:15:45;15.30;99.90
39067;DHT22;24821;51.988;6.020;2022-10-18T07:18:11;15.30;99.90
39067;DHT22;24821;51.988;6.020;2022-10-18T07:20:37;15.30;99.90
39067;DHT22;24821;51.988;6.020;2022-10-18T07:23:02;15.40;99.90
39067;DHT22;24821;51.988;6.020;2022-10-18T07:25:30;15.50;99.90
39067;DHT22;24821;51.988;6.020;2022-10-18T07:27:55;15.50;99.90
39067;DHT22;24821;51.988;6.020;2022-10-18T07:30:21;15.50;99.90
39067;DHT22;24821;51.988;6.020;2022-10-18T07:32:46;15.50;99.90
39067;DHT22;24821;51.988;6.020;2022-10-18T07:35:12;15.50;99.90
39067;DHT22;24821;51.988;6.020;2022-10-18T07:37:37;15.50;99.90
39067;DHT22;24821;51.988;6.020;2022-10-18T07:40:03;15.50;99.90
39067;DHT22;24821;51.988;6.020;2022-10-18T07:42:29;15.50;99.90
39067;DHT22;24821;51.988;6.020;2022-10-18T07:44:54;15.70;99.90
39067;DHT22;24821;51.988;6.020;2022-10-18T07:47:20;15.80;99.90
39067;DHT22;24821;51.988;6.020;2022-10-18T07:49:45;15.80;99.90
39067;DHT22;24821;51.988;6.020;2022-10-18T07:52:11;15.80;99.90
39067;DHT22;24821;51.988;6.020;2022-10-18T07:54:36;15.80;99.90
39067;DHT22;24821;51.988;6.020;2022-10-18T07:57:03;15.70;99.90
39067;DHT22;24821;51.988;6.020;2022-10-18T07:59:29;15.60;99.90
39067;DHT22;24821;51.988;6.020;2022-10-18T08:02:08;15.60;99.90
39067;DHT22;24821;51.988;6.020;2022-10-18T08:04:33;15.60;99.90
39067;DHT22;24821;51.988;6.020;2022-10-18T08:06:59;15.50;99.90
39067;DHT22;24821;51.988;6.020;2022-10-18T08:09:24;15.50;99.90
39067;DHT22;24821;51.988;6.020;2022-10-18T08:11:50;15.50;99.90
39067;DHT22;24821;51.988;6.020;2022-10-18T08:14:16;15.50;99.90
39067;DHT22;24821;51.988;6.020;2022-10-18T08:16:41;15.60;99.90
39067;DHT22;24821;51.988;6.020;2022-10-18T08:19:07;15.60;99.90
39067;DHT22;24821;51.988;6.020;2022-10-18T08:21:32;15.60;99.90
39067;DHT22;24821;51.988;6.020;2022-10-18T08:23:58;15.60;99.90
39067;DHT22;24821;51.988;6.020;2022-10-18T08:26:23;15.60;99.90
39067;DHT22;24821;51.988;6.020;2022-10-18T08:28:49;15.60;99.90
39067;DHT22;24821;51.988;6.020;2022-10-18T08:31:17;15.70;99.90
39067;DHT22;24821;51.988;6.020;2022-10-18T08:33:43;15.70;99.90
39067;DHT22;24821;51.988;6.020;2022-10-18T08:36:11;15.70;99.90
39067;DHT22;24821;51.988;6.020;2022-10-18T08:38:38;15.80;99.90
39067;DHT22;24821;51.988;6.020;2022-10-18T08:46:45;15.90;99.90
39067;DHT22;24821;51.988;6.020;2022-10-18T08:51:46;16.00;99.90
39067;DHT22;24821;51.988;6.020;2022-10-18T08:54:33;16.00;99.90
39067;DHT22;24821;51.988;6.020;2022-10-18T08:57:02;16.00;99.90
39067;DHT22;24821;51.988;6.020;2022-10-18T08:59:35;16.10;99.90
39067;DHT22;24821;51.988;6.020;2022-10-18T09:04:45;16.20;99.90
39067;DHT22;24821;51.988;6.020;2022-10-18T09:15:15;16.30;99.90
39067;DHT22;24821;51.988;6.020;2022-10-18T09:17:55;16.30;99.90
39067;DHT22;24821;51.988;6.020;2022-10-18T09:20:28;16.40;99.90
39067;DHT22;24821;51.988;6.020;2022-10-18T09:23:19;16.50;99.90
39067;DHT22;24821;51.988;6.020;2022-10-18T09:25:48;16.60;99.90
39067;DHT22;24821;51.988;6.020;2022-10-18T09:31:15;16.80;99.90
39067;DHT22;24821;51.988;6.020;2022-10-18T09:36:31;16.80;99.90
39067;DHT22;24821;51.988;6.020;2022-10-18T09:39:24;16.90;99.90
39067;DHT22;24821;51.988;6.020;2022-10-18T09:44:46;17.10;99.90
39067;DHT22;24821;51.988;6.020;2022-10-18T09:47:23;17.10;99.90
39067;DHT22;24821;51.988;6.020;2022-10-18T09:49:56;17.20;99.90
39067;DHT22;24821;51.988;6.020;2022-10-18T09:52:38;17.20;99.90
39067;DHT22;24821;51.988;6.020;2022-10-18T09:55:13;17.30;99.90
39067;DHT22;24821;51.988;6.020;2022-10-18T09:57:41;17.30;99.90
39067;DHT22;24821;51.988;6.020;2022-10-18T10:00:15;17.30;99.90
39067;DHT22;24821;51.988;6.020;2022-10-18T10:02:42;17.30;99.90
39067;DHT22;24821;51.988;6.020;2022-10-18T10:05:12;17.30;99.90
39067;DHT22;24821;51.988;6.020;2022-10-18T10:07:44;17.40;99.90
39067;DHT22;24821;51.988;6.020;2022-10-18T10:10:22;17.40;99.90
39067;DHT22;24821;51.988;6.020;2022-10-18T10:13:15;17.50;99.90
39067;DHT22;24821;51.988;6.020;2022-10-18T10:20:47;17.60;99.90
39067;DHT22;24821;51.988;6.020;2022-10-18T10:23:30;17.70;99.90
39067;DHT22;24821;51.988;6.020;2022-10-18T10:26:06;17.70;99.90
39067;DHT22;24821;51.988;6.020;2022-10-18T10:28:44;17.70;99.90
39067;DHT22;24821;51.988;6.020;2022-10-18T10:33:46;17.70;99.90
39067;DHT22;24821;51.988;6.020;2022-10-18T10:36:17;17.80;99.60
39067;DHT22;24821;51.988;6.020;2022-10-18T10:38:43;17.80;98.60
39067;DHT22;24821;51.988;6.020;2022-10-18T10:41:20;17.80;98.70
39067;DHT22;24821;51.988;6.020;2022-10-18T10:43:47;17.90;98.10
39067;DHT22;24821;51.988;6.020;2022-10-18T10:46:17;17.80;97.70
39067;DHT22;24821;51.988;6.020;2022-10-18T10:48:55;17.90;97.60
39067;DHT22;24821;51.988;6.020;2022-10-18T10:51:36;17.90;97.60
39067;DHT22;24821;51.988;6.020;2022-10-18T10:54:15;17.90;97.80
39067;DHT22;24821;51.988;6.020;2022-10-18T10:57:01;17.90;97.50
39067;DHT22;24821;51.988;6.020;2022-10-18T10:59:39;17.90;97.30
39067;DHT22;24821;51.988;6.020;2022-10-18T11:04:42;17.90;96.70
39067;DHT22;24821;51.988;6.020;2022-10-18T11:09:52;18.00;97.00
39067;DHT22;24821;51.988;6.020;2022-10-18T11:12:39;18.00;96.70
39067;DHT22;24821;51.988;6.020;2022-10-18T11:23:24;18.10;96.40
39067;DHT22;24821;51.988;6.020;2022-10-18T11:33:56;18.20;95.00
39067;DHT22;24821;51.988;6.020;2022-10-18T11:36:30;18.30;95.10
39067;DHT22;24821;51.988;6.020;2022-10-18T11:39:07;18.30;95.10
39067;DHT22;24821;51.988;6.020;2022-10-18T11:41:42;18.30;95.30
39067;DHT22;24821;51.988;6.020;2022-10-18T11:44:37;18.30;95.20
39067;DHT22;24821;51.988;6.020;2022-10-18T11:53:25;18.50;94.90
39067;DHT22;24821;51.988;6.020;2022-10-18T12:01:52;18.50;95.00
39067;DHT22;24821;51.988;6.020;2022-10-18T12:04:32;18.60;94.40
39067;DHT22;24821;51.988;6.020;2022-10-18T12:06:59;18.60;94.50
39067;DHT22;24821;51.988;6.020;2022-10-18T12:09:36;18.60;94.30
39067;DHT22;24821;51.988;6.020;2022-10-18T12:12:18;18.60;94.20
39067;DHT22;24821;51.988;6.020;2022-10-18T12:14:52;18.60;93.10
39067;DHT22;24821;51.988;6.020;2022-10-18T12:17:31;18.60;93.20
39067;DHT22;24821;51.988;6.020;2022-10-18T12:20:04;18.70;93.50
39067;DHT22;24821;51.988;6.020;2022-10-18T12:22:37;18.70;93.80
39067;DHT22;24821;51.988;6.020;2022-10-18T12:25:08;18.80;93.40
39067;DHT22;24821;51.988;6.020;2022-10-18T12:33:36;18.70;92.20
39067;DHT22;24821;51.988;6.020;2022-10-18T12:38:49;18.80;92.40
39067;DHT22;24821;51.988;6.020;2022-10-18T12:41:20;18.80;92.20
39067;DHT22;24821;51.988;6.020;2022-10-18T12:43:52;18.80;92.00
39067;DHT22;24821;51.988;6.020;2022-10-18T12:46:18;18.90;91.90
39067;DHT22;24821;51.988;6.020;2022-10-18T12:48:49;18.90;92.10
39067;DHT22;24821;51.988;6.020;2022-10-18T12:51:24;18.90;92.00
39067;DHT22;24821;51.988;6.020;2022-10-18T13:09:24;19.10;91.30
39067;DHT22;24821;51.988;6.020;2022-10-18T13:11:51;19.10;91.30
39067;DHT22;24821;51.988;6.020;2022-10-18T13:14:32;19.10;91.10
39067;DHT22;24821;51.988;6.020;2022-10-18T13:17:28;19.10;91.10
39067;DHT22;24821;51.988;6.020;2022-10-18T13:23:02;19.10;90.80
39067;DHT22;24821;51.988;6.020;2022-10-18T13:25:55;19.10;90.20
39067;DHT22;24821;51.988;6.020;2022-10-18T13:31:27;19.10;89.40
39067;DHT22;24821;51.988;6.020;2022-10-18T13:33:53;19.00;89.00
39067;DHT22;24821;51.988;6.020;2022-10-18T13:42:16;18.90;88.00
39067;DHT22;24821;51.988;6.020;2022-10-18T14:08:03;18.70;89.00
39067;DHT22;24821;51.988;6.020;2022-10-18T14:13:30;18.70;89.20
39067;DHT22;24821;51.988;6.020;2022-10-18T14:16:04;18.60;89.50
39067;DHT22;24821;51.988;6.020;2022-10-18T14:18:33;18.60;89.50
39067;DHT22;24821;51.988;6.020;2022-10-18T14:21:22;18.60;90.00
39067;DHT22;24821;51.988;6.020;2022-10-18T14:23:51;18.70;90.20
39067;DHT22;24821;51.988;6.020;2022-10-18T14:26:18;18.60;90.10
39067;DHT22;24821;51.988;6.020;2022-10-18T14:28:46;18.60;90.20
39067;DHT22;24821;51.988;6.020;2022-10-18T14:31:26;18.60;90.20
39067;DHT22;24821;51.988;6.020;2022-10-18T14:33:54;18.50;90.50
39067;DHT22;24821;51.988;6.020;2022-10-18T14:38:55;18.50;90.30
39067;DHT22;24821;51.988;6.020;2022-10-18T14:46:42;18.50;90.40
39067;DHT22;24821;51.988;6.020;2022-10-18T14:49:10;18.40;90.30
39067;DHT22;24821;51.988;6.020;2022-10-18T14:51:38;18.40;90.70
39067;DHT22;24821;51.988;6.020;2022-10-18T14:54:05;18.40;90.80
39067;DHT22;24821;51.988;6.020;2022-10-18T14:56:36;18.40;90.90
39067;DHT22;24821;51.988;6.020;2022-10-18T14:59:03;18.30;91.00
39067;DHT22;24821;51.988;6.020;2022-10-18T15:01:31;18.30;91.50
39067;DHT22;24821;51.988;6.020;2022-10-18T15:03:58;18.30;91.40
39067;DHT22;24821;51.988;6.020;2022-10-18T15:06:24;18.30;90.90
39067;DHT22;24821;51.988;6.020;2022-10-18T15:08:56;18.20;91.10
39067;DHT22;24821;51.988;6.020;2022-10-18T15:11:22;18.20;91.30
39067;DHT22;24821;51.988;6.020;2022-10-18T15:13:57;18.20;91.10
39067;DHT22;24821;51.988;6.020;2022-10-18T15:16:27;18.20;91.30
39067;DHT22;24821;51.988;6.020;2022-10-18T15:19:06;18.10;91.40
39067;DHT22;24821;51.988;6.020;2022-10-18T15:21:34;18.10;91.40
39067;DHT22;24821;51.988;6.020;2022-10-18T15:26:45;18.00;91.80
39067;DHT22;24821;51.988;6.020;2022-10-18T15:29:17;17.90;92.10
39067;DHT22;24821;51.988;6.020;2022-10-18T15:31:44;17.90;92.20
39067;DHT22;24821;51.988;6.020;2022-10-18T15:34:17;17.80;92.30
39067;DHT22;24821;51.988;6.020;2022-10-18T15:36:43;17.80;92.30
39067;DHT22;24821;51.988;6.020;2022-10-18T15:39:21;17.70;92.30
39067;DHT22;24821;51.988;6.020;2022-10-18T15:41:53;17.70;92.30
39067;DHT22;24821;51.988;6.020;2022-10-18T15:44:30;17.60;92.40
39067;DHT22;24821;51.988;6.020;2022-10-18T15:54:56;17.20;92.70
39067;DHT22;24821;51.988;6.020;2022-10-18T15:57:23;17.10;92.80
39067;DHT22;24821;51.988;6.020;2022-10-18T16:00:03;17.10;93.00
39067;DHT22;24821;51.988;6.020;2022-10-18T16:02:30;17.00;93.00
39067;DHT22;24821;51.988;6.020;2022-10-18T16:04:58;16.90;93.10
39067;DHT22;24821;51.988;6.020;2022-10-18T16:07:23;16.90;93.20
39067;DHT22;24821;51.988;6.020;2022-10-18T16:09:49;16.80;93.40
39067;DHT22;24821;51.988;6.020;2022-10-18T16:12:14;16.70;93.60
39067;DHT22;24821;51.988;6.020;2022-10-18T16:14:40;16.60;93.90
39067;DHT22;24821;51.988;6.020;2022-10-18T16:17:06;16.50;94.00
39067;DHT22;24821;51.988;6.020;2022-10-18T16:19:32;16.40;94.30
39067;DHT22;24821;51.988;6.020;2022-10-18T16:21:58;16.40;94.70
39067;DHT22;24821;51.988;6.020;2022-10-18T16:24:24;16.30;94.90
39067;DHT22;24821;51.988;6.020;2022-10-18T16:26:50;16.20;95.20
39067;DHT22;24821;51.988;6.020;2022-10-18T16:29:19;16.10;95.40
39067;DHT22;24821;51.988;6.020;2022-10-18T16:31:46;16.10;95.70
39067;DHT22;24821;51.988;6.020;2022-10-18T16:34:12;16.00;95.90
39067;DHT22;24821;51.988;6.020;2022-10-18T16:36:39;15.90;96.10
39067;DHT22;24821;51.988;6.020;2022-10-18T16:39:06;15.80;96.20
39067;DHT22;24821;51.988;6.020;2022-10-18T16:41:35;15.70;96.40
39067;DHT22;24821;51.988;6.020;2022-10-18T16:44:00;15.60;96.60
39067;DHT22;24821;51.988;6.020;2022-10-18T16:46:29;15.60;96.80
39067;DHT22;24821;51.988;6.020;2022-10-18T16:48:55;15.50;97.00
39067;DHT22;24821;51.988;6.020;2022-10-18T16:51:21;15.40;97.10
39067;DHT22;24821;51.988;6.020;2022-10-18T16:53:46;15.30;97.30
39067;DHT22;24821;51.988;6.020;2022-10-18T16:56:17;15.20;97.40
39067;DHT22;24821;51.988;6.020;2022-10-18T16:58:48;15.20;97.50
39067;DHT22;24821;51.988;6.020;2022-10-18T17:01:15;15.10;97.70
39067;DHT22;24821;51.988;6.020;2022-10-18T17:03:42;15.00;97.90
39067;DHT22;24821;51.988;6.020;2022-10-18T17:06:17;14.90;98.10
39067;DHT22;24821;51.988;6.020;2022-10-18T17:08:43;14.90;98.20
39067;DHT22;24821;51.988;6.020;2022-10-18T17:11:10;14.80;98.40
39067;DHT22;24821;51.988;6.020;2022-10-18T17:13:36;14.70;98.60
39067;DHT22;24821;51.988;6.020;2022-10-18T17:16:03;14.70;98.80
39067;DHT22;24821;51.988;6.020;2022-10-18T17:18:29;14.60;98.90
39067;DHT22;24821;51.988;6.020;2022-10-18T17:20:59;14.50;99.10
39067;DHT22;24821;51.988;6.020;2022-10-18T17:23:27;14.50;99.20
39067;DHT22;24821;51.988;6.020;2022-10-18T17:25:53;14.40;99.40
39067;DHT22;24821;51.988;6.020;2022-10-18T17:28:19;14.30;99.50
39067;DHT22;24821;51.988;6.020;2022-10-18T17:30:46;14.30;99.60
39067;DHT22;24821;51.988;6.020;2022-10-18T17:33:13;14.20;99.70
39067;DHT22;24821;51.988;6.020;2022-10-18T17:35:39;14.20;99.80
39067;DHT22;24821;51.988;6.020;2022-10-18T17:38:05;14.10;99.90
39067;DHT22;24821;51.988;6.020;2022-10-18T17:40:31;14.00;99.90
39067;DHT22;24821;51.988;6.020;2022-10-18T17:42:57;14.00;99.90
39067;DHT22;24821;51.988;6.020;2022-10-18T17:45:23;13.90;99.90
39067;DHT22;24821;51.988;6.020;2022-10-18T17:47:50;13.90;99.90
39067;DHT22;24821;51.988;6.020;2022-10-18T17:50:16;13.80;99.90
39067;DHT22;24821;51.988;6.020;2022-10-18T17:52:46;13.80;99.90
39067;DHT22;24821;51.988;6.020;2022-10-18T17:55:13;13.70;99.90
39067;DHT22;24821;51.988;6.020;2022-10-18T17:57:40;13.70;99.90
39067;DHT22;24821;51.988;6.020;2022-10-18T18:00:07;13.60;99.90
39067;DHT22;24821;51.988;6.020;2022-10-18T18:02:34;13.60;99.90
39067;DHT22;24821;51.988;6.020;2022-10-18T18:04:59;13.50;99.90
39067;DHT22;24821;51.988;6.020;2022-10-18T18:07:25;13.50;99.90
39067;DHT22;24821;51.988;6.020;2022-10-18T18:09:51;13.40;99.90
39067;DHT22;24821;51.988;6.020;2022-10-18T18:12:16;13.40;99.90
39067;DHT22;24821;51.988;6.020;2022-10-18T18:14:42;13.30;99.90
39067;DHT22;24821;51.988;6.020;2022-10-18T18:17:08;13.30;99.90
39067;DHT22;24821;51.988;6.020;2022-10-18T18:19:33;13.30;99.90
39067;DHT22;24821;51.988;6.020;2022-10-18T18:21:59;13.20;99.90
39067;DHT22;24821;51.988;6.020;2022-10-18T18:24:26;13.20;99.90